createdAt,value
2019-05-07T00:00:35.466Z,31.68
2019-05-07T00:03:03.971Z,33.25
2019-05-07T00:05:33.149Z,35.13
2019-05-07T00:08:02.989Z,35.88
2019-05-07T00:10:33.101Z,36.10
2019-05-07T00:13:02.363Z,27.40
2019-05-07T00:15:32.814Z,34.48
2019-05-07T00:18:03.200Z,33.38
2019-05-07T00:20:32.706Z,34.55
2019-05-07T00:23:02.930Z,31.95
2019-05-07T00:25:32.857Z,32.10
2019-05-07T00:28:02.955Z,34.17
2019-05-07T00:30:33.237Z,33.40
2019-05-07T00:33:02.898Z,33.38
2019-05-07T00:35:35.736Z,32.88
2019-05-07T00:38:14.576Z,33.73
2019-05-07T00:40:44.632Z,33.65
2019-05-07T00:43:14.746Z,25.02
2019-05-07T00:45:56.676Z,31.80
2019-05-07T00:48:23.918Z,32.48
2019-05-07T00:50:54.007Z,32.33
2019-05-07T00:53:23.649Z,33.18
2019-05-07T00:55:52.605Z,30.80
2019-05-07T00:58:25.989Z,31.02
2019-05-07T01:00:53.127Z,23.12
2019-05-07T01:03:22.208Z,30.60
2019-05-07T01:05:52.740Z,29.80
2019-05-07T01:08:22.546Z,31.07
2019-05-07T01:10:52.868Z,29.52
2019-05-07T01:13:23.491Z,31.02
2019-05-07T01:15:53.225Z,29.52
2019-05-07T01:18:23.283Z,29.82
2019-05-07T01:20:53.288Z,28.73
2019-05-07T01:23:22.856Z,29.40
2019-05-07T01:25:52.628Z,29.45
2019-05-07T01:28:22.316Z,30.57
2019-05-07T01:30:52.745Z,31.05
2019-05-07T01:33:25.468Z,30.02
2019-05-07T01:35:58.231Z,31.85
2019-05-07T01:38:26.759Z,31.05
2019-05-07T01:40:55.172Z,30.52
2019-05-07T01:43:23.612Z,31.70
2019-05-07T01:45:53.035Z,33.02
2019-05-07T01:48:23.027Z,31.80
2019-05-07T01:50:52.537Z,30.68
2019-05-07T01:53:22.761Z,32.53
2019-05-07T01:55:52.392Z,32.53
2019-05-07T01:58:22.127Z,32.03
2019-05-07T02:00:53.041Z,33.83
2019-05-07T02:03:34.772Z,34.55
2019-05-07T02:06:13.487Z,33.58
2019-05-07T02:08:43.581Z,32.95
2019-05-07T02:11:13.677Z,33.78
2019-05-07T02:13:42.131Z,34.85
2019-05-07T02:16:12.432Z,35.28
2019-05-07T02:18:42.420Z,34.55
2019-05-07T02:21:12.888Z,36.58
2019-05-07T02:23:42.578Z,36.05
2019-05-07T02:26:13.364Z,38.15
2019-05-07T02:28:42.695Z,37.73
2019-05-07T02:31:15.113Z,39.78
2019-05-07T02:33:43.835Z,38.48
2019-05-07T02:36:14.188Z,38.42
2019-05-07T02:38:44.444Z,36.55
2019-05-07T02:41:14.612Z,37.85
2019-05-07T02:43:43.124Z,36.93
2019-05-07T02:46:26.374Z,36.20
2019-05-07T02:48:46.557Z,37.83
2019-05-07T02:51:19.337Z,36.70
2019-05-07T02:54:05.530Z,38.85
2019-05-07T02:56:33.967Z,37.80
2019-05-07T02:59:04.060Z,39.08
2019-05-07T03:01:33.480Z,38.00
2019-05-07T03:04:03.642Z,39.80
2019-05-07T03:06:33.922Z,40.75
2019-05-07T03:09:03.295Z,39.38
2019-05-07T03:11:34.036Z,37.83
2019-05-07T03:14:03.150Z,37.73
2019-05-07T03:16:39.678Z,37.07
2019-05-07T03:19:04.019Z,36.83
2019-05-07T03:21:53.424Z,37.45
2019-05-07T03:24:23.077Z,36.70
2019-05-07T03:26:53.545Z,39.45
2019-05-07T03:29:24.146Z,41.15
2019-05-07T03:31:56.423Z,38.98
2019-05-07T03:34:38.268Z,37.13
2019-05-07T03:37:08.341Z,39.80
2019-05-07T03:39:36.755Z,40.28
2019-05-07T03:42:05.250Z,40.83
2019-05-07T03:44:38.048Z,41.28
2019-05-07T03:47:17.869Z,41.37
2019-05-07T03:49:46.314Z,41.45
2019-05-07T03:52:16.421Z,40.73
2019-05-07T03:54:44.844Z,41.88
2019-05-07T03:57:15.776Z,40.75
2019-05-07T03:59:43.557Z,40.08
2019-05-07T04:02:14.304Z,39.25
2019-05-07T04:04:43.226Z,40.85
2019-05-07T04:07:13.787Z,38.92
2019-05-07T04:09:43.756Z,40.30
2019-05-07T04:12:13.327Z,41.45
2019-05-07T04:14:43.292Z,40.23
2019-05-07T04:17:17.295Z,37.88
2019-05-07T04:19:44.133Z,43.33
2019-05-07T04:22:13.267Z,40.60
2019-05-07T04:24:46.062Z,41.58
2019-05-07T04:27:25.161Z,38.25
2019-05-07T04:29:53.617Z,37.25
2019-05-07T04:32:23.686Z,39.42
2019-05-07T04:34:59.212Z,39.08
2019-05-07T04:37:27.636Z,41.53
2019-05-07T04:39:56.066Z,40.83
2019-05-07T04:42:24.901Z,41.75
2019-05-07T04:44:54.109Z,42.35
2019-05-07T04:47:34.758Z,43.78
2019-05-07T04:49:53.601Z,42.50
2019-05-07T04:52:23.990Z,43.58
2019-05-07T04:54:52.912Z,41.98
2019-05-07T04:57:25.838Z,42.10
2019-05-07T05:00:03.304Z,41.63
2019-05-07T05:02:32.611Z,42.00
2019-05-07T05:05:03.276Z,41.48
2019-05-07T05:07:33.487Z,32.88
2019-05-07T05:10:02.760Z,44.45
2019-05-07T05:12:32.599Z,40.17
2019-05-07T05:15:02.160Z,43.10
2019-05-07T05:17:32.042Z,44.48
2019-05-07T05:20:03.569Z,43.02
2019-05-07T05:22:42.543Z,46.18
2019-05-07T05:25:12.885Z,45.67
2019-05-07T05:27:42.965Z,35.00
2019-05-07T05:30:30.173Z,47.95
2019-05-07T05:33:01.321Z,47.15
2019-05-07T05:35:28.808Z,46.90
2019-05-07T05:37:57.218Z,48.23
2019-05-07T05:40:25.674Z,47.23
2019-05-07T05:42:55.804Z,45.60
2019-05-07T05:45:36.626Z,46.20
2019-05-07T05:50:53.831Z,43.95
2019-05-07T05:53:25.089Z,47.75
2019-05-07T05:55:54.385Z,42.83
2019-05-07T05:58:25.524Z,43.45
2019-05-07T06:00:55.628Z,44.85
2019-05-07T06:03:46.745Z,47.20
2019-05-07T06:06:32.729Z,46.58
2019-05-07T06:09:12.413Z,41.37
2019-05-07T06:11:57.463Z,40.70
2019-05-07T06:14:33.297Z,40.45
2019-05-07T06:17:13.073Z,38.20
2019-05-07T06:19:49.326Z,39.70
2019-05-07T06:22:19.418Z,38.58
2019-05-07T06:24:56.552Z,38.55
2019-05-07T06:27:24.985Z,41.18
2019-05-07T06:29:53.418Z,37.40
2019-05-07T06:32:22.886Z,40.43
2019-05-07T06:34:52.273Z,40.38
2019-05-07T06:37:22.944Z,40.45
2019-05-07T06:39:58.433Z,40.10
2019-05-07T06:42:28.577Z,40.95
2019-05-07T06:45:02.933Z,44.48
2019-05-07T06:47:31.971Z,47.65
2019-05-07T06:50:05.422Z,41.18
2019-05-07T06:52:35.380Z,42.00
2019-05-07T06:55:04.633Z,46.23
2019-05-07T06:57:35.124Z,42.03
2019-05-07T07:00:08.657Z,43.78
2019-05-07T07:02:41.993Z,41.30
2019-05-07T07:05:12.433Z,36.00
2019-05-07T07:07:45.176Z,41.37
2019-05-07T07:10:15.436Z,43.02
2019-05-07T07:12:43.983Z,37.30
2019-05-07T07:15:12.527Z,39.73
2019-05-07T07:17:43.377Z,38.33
2019-05-07T07:22:42.574Z,32.85
2019-05-07T07:25:11.899Z,31.60
2019-05-07T07:27:42.718Z,30.05
2019-05-07T07:30:12.800Z,27.45
2019-05-07T07:35:13.029Z,26.50
2019-05-07T07:37:42.991Z,21.65
2019-05-07T07:40:22.435Z,20.82
2019-05-07T07:42:52.035Z,17.12
2019-05-07T07:45:22.795Z,14.05
2019-05-07T07:47:52.927Z,16.20
2019-05-07T07:50:22.389Z,15.65
2019-05-07T07:52:52.976Z,16.50
2019-05-07T07:55:22.767Z,16.35
2019-05-07T07:57:52.852Z,14.80
2019-05-07T08:00:32.910Z,13.72
2019-05-07T08:03:03.147Z,13.40
2019-05-07T08:05:32.563Z,12.95
2019-05-07T08:08:02.285Z,13.03
2019-05-07T08:10:32.540Z,13.70
2019-05-07T08:13:01.926Z,12.25
2019-05-07T08:15:33.021Z,11.73
2019-05-07T08:18:02.772Z,13.08
2019-05-07T08:20:32.634Z,12.07
2019-05-07T08:23:02.877Z,13.30
2019-05-07T08:25:52.231Z,12.50
2019-05-07T08:28:23.122Z,12.93
2019-05-07T08:30:53.211Z,13.72
2019-05-07T08:33:26.279Z,12.82
2019-05-07T08:36:11.981Z,13.78
2019-05-07T08:38:52.731Z,12.63
2019-05-07T08:41:22.792Z,12.20
2019-05-07T08:44:07.339Z,9.20
2019-05-07T08:46:24.872Z,8.15
2019-05-07T08:48:53.305Z,6.90
2019-05-07T08:51:22.354Z,6.90
2019-05-07T08:54:06.220Z,8.08
2019-05-07T08:56:36.291Z,7.72
2019-05-07T08:59:08.093Z,8.68
2019-05-07T09:01:39.248Z,8.18
2019-05-07T09:04:07.725Z,8.48
2019-05-07T09:06:36.306Z,5.80
2019-05-07T09:09:13.462Z,6.50
2019-05-07T09:11:42.599Z,5.78
2019-05-07T09:14:12.969Z,6.37
2019-05-07T09:16:42.644Z,5.75
2019-05-07T09:19:12.895Z,6.13
2019-05-07T09:21:42.832Z,5.45
2019-05-07T09:24:12.364Z,6.43
2019-05-07T09:26:42.534Z,6.20
2019-05-07T09:29:15.013Z,8.40
2019-05-07T09:31:52.540Z,6.08
2019-05-07T09:34:25.170Z,6.05
2019-05-07T09:37:12.398Z,6.30
2019-05-07T09:39:43.365Z,6.35
2019-05-07T09:44:42.484Z,6.12
2019-05-07T09:47:12.786Z,6.20
2019-05-07T09:49:41.943Z,6.28
2019-05-07T09:52:12.279Z,6.47
2019-05-07T09:54:42.690Z,6.20
2019-05-07T09:57:25.439Z,5.83
2019-05-07T09:59:42.618Z,6.45
2019-05-07T10:02:12.245Z,6.10
2019-05-07T10:04:41.810Z,6.33
2019-05-07T10:07:12.605Z,5.95
2019-05-07T10:09:42.577Z,5.00
2019-05-07T10:12:24.634Z,4.15
2019-05-07T10:14:53.134Z,5.10
2019-05-07T10:17:26.192Z,5.12
2019-05-07T10:19:54.625Z,5.42
2019-05-07T10:22:23.049Z,5.72
2019-05-07T10:24:52.213Z,5.35
2019-05-07T10:27:21.813Z,4.67
2019-05-07T10:29:50.372Z,4.08
2019-05-07T10:32:18.800Z,4.00
2019-05-07T10:34:47.619Z,4.50
2019-05-07T10:37:16.063Z,4.45
2019-05-07T10:39:44.576Z,4.10
2019-05-07T10:42:13.059Z,4.60
2019-05-07T10:44:48.791Z,4.35
2019-05-07T10:47:35.352Z,4.55
2019-05-07T10:50:17.215Z,4.92
2019-05-07T10:52:45.760Z,5.15
2019-05-07T10:55:14.548Z,5.17
2019-05-07T10:57:42.979Z,5.25
2019-05-07T11:00:14.302Z,5.62
2019-05-07T11:02:42.713Z,5.55
2019-05-07T11:05:12.977Z,5.37
2019-05-07T11:07:42.222Z,5.25
2019-05-07T11:10:12.512Z,6.55
2019-05-07T11:12:42.433Z,5.05
2019-05-07T11:15:12.658Z,4.73
2019-05-07T11:17:48.624Z,5.15
2019-05-07T11:20:18.594Z,5.10
2019-05-07T11:22:47.125Z,4.40
2019-05-07T11:25:15.666Z,4.67
2019-05-07T11:27:44.099Z,4.90
2019-05-07T11:30:13.860Z,4.85
2019-05-07T11:32:42.948Z,5.05
2019-05-07T11:35:14.532Z,5.65
2019-05-07T11:37:44.141Z,4.58
2019-05-07T11:40:13.123Z,5.55
2019-05-07T11:43:02.518Z,5.12
2019-05-07T11:45:32.781Z,5.20
2019-05-07T11:48:01.874Z,4.97
2019-05-07T11:51:00.576Z,5.28
2019-05-07T11:53:22.078Z,5.50
2019-05-07T11:55:52.294Z,5.12
2019-05-07T11:58:22.012Z,5.58
2019-05-07T12:00:55.073Z,4.87
2019-05-07T12:03:23.468Z,4.72
2019-05-07T12:05:52.709Z,5.30
2019-05-07T12:08:22.401Z,4.75
2019-05-07T12:10:51.835Z,4.85
2019-05-07T12:13:21.829Z,4.80
2019-05-07T12:15:52.077Z,4.03
2019-05-07T12:18:22.538Z,4.25
2019-05-07T12:20:53.849Z,7.03
2019-05-07T12:23:22.712Z,4.80
2019-05-07T12:25:52.933Z,4.70
2019-05-07T12:28:22.565Z,4.78
2019-05-07T12:30:58.816Z,5.15
2019-05-07T12:33:32.464Z,4.78
2019-05-07T12:36:01.998Z,5.20
2019-05-07T12:38:32.386Z,5.20
2019-05-07T12:41:02.497Z,5.10
2019-05-07T12:43:31.934Z,5.75
2019-05-07T12:46:02.728Z,4.95
2019-05-07T12:48:30.618Z,4.90
2019-05-07T12:50:59.055Z,4.58
2019-05-07T12:53:29.143Z,4.83
2019-05-07T12:56:02.162Z,4.78
2019-05-07T12:58:32.305Z,4.33
2019-05-07T13:01:05.442Z,3.87
2019-05-07T13:03:38.270Z,4.08
2019-05-07T13:06:06.720Z,3.42
2019-05-07T13:08:35.127Z,3.08
2019-05-07T13:11:03.614Z,2.72
2019-05-07T13:13:32.216Z,3.27
2019-05-07T13:16:02.706Z,4.25
2019-05-07T13:18:31.138Z,3.52
2019-05-07T13:20:59.584Z,3.58
2019-05-07T13:23:27.989Z,3.92
2019-05-07T13:25:56.436Z,3.62
2019-05-07T13:28:26.375Z,3.83
2019-05-07T13:30:54.819Z,3.98
2019-05-07T13:33:23.803Z,4.00
2019-05-07T13:35:52.631Z,3.85
2019-05-07T13:38:38.974Z,3.37
2019-05-07T13:41:25.493Z,3.83
2019-05-07T13:44:05.166Z,4.05
2019-05-07T13:46:35.494Z,3.80
2019-05-07T13:49:03.983Z,4.28
2019-05-07T13:51:33.902Z,4.33
2019-05-07T13:54:02.607Z,4.62
2019-05-07T13:56:32.668Z,5.10
2019-05-07T13:59:04.649Z,4.37
2019-05-07T14:01:39.160Z,5.20
2019-05-07T14:04:07.582Z,4.47
2019-05-07T14:06:38.733Z,4.30
2019-05-07T14:09:19.483Z,4.78
2019-05-07T14:11:47.968Z,4.75
2019-05-07T14:14:16.447Z,5.05
2019-05-07T14:16:45.203Z,5.45
2019-05-07T14:19:13.841Z,4.70
2019-05-07T14:21:42.410Z,5.10
2019-05-07T14:24:12.297Z,4.15
2019-05-07T14:26:42.211Z,4.90
2019-05-07T14:29:10.791Z,4.97
2019-05-07T14:31:39.217Z,5.00
2019-05-07T14:34:24.265Z,5.20
2019-05-07T14:37:04.702Z,6.62
2019-05-07T14:39:33.358Z,4.97
2019-05-07T14:42:03.429Z,5.47
2019-05-07T14:44:52.631Z,5.53
2019-05-07T14:47:22.285Z,4.75
2019-05-07T14:49:52.895Z,4.53
2019-05-07T14:52:30.179Z,5.05
2019-05-07T14:54:51.423Z,5.67
2019-05-07T14:57:21.972Z,4.58
2019-05-07T14:59:52.233Z,5.53
2019-05-07T15:02:20.338Z,5.12
2019-05-07T15:04:48.770Z,5.72
2019-05-07T15:07:17.252Z,5.60
2019-05-07T15:09:45.950Z,5.20
2019-05-07T15:12:14.934Z,4.97
2019-05-07T15:14:43.910Z,5.40
2019-05-07T15:17:14.041Z,4.70
2019-05-07T15:19:42.851Z,5.05
2019-05-07T15:22:42.900Z,5.42
2019-05-07T15:24:59.416Z,5.22
2019-05-07T15:27:27.895Z,5.12
2019-05-07T15:29:56.352Z,5.03
2019-05-07T15:32:24.754Z,4.67
2019-05-07T15:34:53.371Z,5.33
2019-05-07T15:37:21.820Z,5.45
2019-05-07T15:39:50.311Z,5.20
2019-05-07T15:42:18.826Z,5.80
2019-05-07T15:44:47.287Z,5.60
2019-05-07T15:47:22.161Z,5.30
2019-05-07T15:49:50.188Z,5.72
2019-05-07T15:52:35.534Z,6.00
2019-05-07T15:55:06.120Z,6.05
2019-05-07T15:57:34.578Z,7.12
2019-05-07T16:00:05.258Z,6.90
2019-05-07T16:02:35.330Z,7.55
2019-05-07T16:05:05.173Z,7.75
2019-05-07T16:07:33.584Z,8.13
2019-05-07T16:10:02.084Z,8.95
2019-05-07T16:12:31.954Z,7.80
2019-05-07T16:15:03.001Z,7.78
2019-05-07T16:17:32.830Z,7.67
2019-05-07T16:20:03.222Z,8.03
2019-05-07T16:22:35.686Z,8.30
2019-05-07T16:25:07.244Z,7.58
2019-05-07T16:27:36.739Z,8.00
2019-05-07T16:30:06.951Z,8.00
2019-05-07T16:32:35.443Z,7.53
2019-05-07T16:35:05.629Z,7.90
2019-05-07T16:37:34.186Z,7.95
2019-05-07T16:40:04.549Z,8.00
2019-05-07T16:42:33.119Z,8.50
2019-05-07T16:45:02.928Z,8.88
2019-05-07T16:47:31.465Z,8.07
2019-05-07T16:50:04.031Z,8.40
2019-05-07T16:52:34.792Z,7.85
2019-05-07T16:55:02.825Z,9.08
2019-05-07T16:57:34.936Z,8.48
2019-05-07T17:00:05.472Z,9.65
2019-05-07T17:02:38.454Z,8.13
2019-05-07T17:05:12.421Z,8.43
2019-05-07T17:07:52.117Z,8.70
2019-05-07T17:10:22.380Z,8.95
2019-05-07T17:12:52.392Z,8.20
2019-05-07T17:15:22.839Z,8.43
2019-05-07T17:18:00.043Z,8.73
2019-05-07T17:20:29.020Z,8.03
2019-05-07T17:22:57.767Z,8.78
2019-05-07T17:25:38.334Z,7.47
2019-05-07T17:28:08.121Z,7.83
2019-05-07T17:30:37.785Z,8.08
2019-05-07T17:33:06.734Z,8.48
2019-05-07T17:35:35.188Z,8.45
2019-05-07T17:38:07.224Z,10.28
2019-05-07T17:40:34.465Z,9.10
2019-05-07T17:43:03.232Z,9.85
2019-05-07T17:45:32.781Z,10.75
2019-05-07T17:48:03.250Z,9.95
2019-05-07T17:50:36.556Z,9.68
2019-05-07T17:53:04.978Z,10.40
2019-05-07T17:55:33.421Z,10.43
2019-05-07T17:58:02.062Z,10.05
2019-05-07T18:00:32.720Z,10.28
2019-05-07T18:03:18.861Z,9.58
2019-05-07T18:05:47.279Z,9.43
2019-05-07T18:08:15.690Z,9.90
2019-05-07T18:10:44.117Z,10.35
2019-05-07T18:13:13.037Z,10.30
2019-05-07T18:15:42.744Z,10.03
2019-05-07T18:18:14.499Z,9.23
2019-05-07T18:20:42.924Z,10.38
2019-05-07T18:23:16.667Z,9.50
2019-05-07T18:25:42.864Z,9.70
2019-05-07T18:28:12.316Z,9.70
2019-05-07T18:30:40.824Z,10.50
2019-05-07T18:33:10.915Z,10.75
2019-05-07T18:35:39.333Z,11.83
2019-05-07T18:38:07.775Z,11.78
2019-05-07T18:40:36.198Z,11.63
2019-05-07T18:43:04.729Z,13.25
2019-05-07T18:45:33.156Z,10.78
2019-05-07T18:48:02.433Z,12.90
2019-05-07T18:50:32.527Z,11.75
2019-05-07T18:53:02.819Z,12.15
2019-05-07T18:55:33.076Z,12.30
2019-05-07T18:58:02.777Z,13.03
2019-05-07T19:00:39.161Z,12.53
2019-05-07T19:03:07.679Z,12.55
2019-05-07T19:05:36.136Z,14.03
2019-05-07T19:08:08.326Z,15.72
2019-05-07T19:10:34.752Z,16.05
2019-05-07T19:13:03.193Z,16.82
2019-05-07T19:15:32.914Z,17.45
2019-05-07T19:18:02.676Z,15.83
2019-05-07T19:20:32.612Z,17.05
2019-05-07T19:23:02.701Z,17.48
2019-05-07T19:25:32.691Z,16.40
2019-05-07T19:28:02.050Z,16.37
2019-05-07T19:30:32.628Z,16.20
2019-05-07T19:33:00.838Z,15.65
2019-05-07T19:35:29.286Z,15.28
2019-05-07T19:37:57.775Z,14.15
2019-05-07T19:40:26.205Z,14.05
2019-05-07T19:42:54.779Z,14.98
2019-05-07T19:45:24.455Z,13.98
2019-05-07T19:47:53.064Z,13.13
2019-05-07T19:50:23.310Z,14.00
2019-05-07T19:52:53.940Z,13.00
2019-05-07T19:55:22.350Z,12.40
2019-05-07T19:57:55.299Z,11.88
2019-05-07T20:00:25.396Z,11.05
2019-05-07T20:02:56.251Z,12.33
2019-05-07T20:07:55.583Z,11.85
2019-05-07T20:10:24.110Z,11.48
2019-05-07T20:12:52.555Z,11.65
2019-05-07T20:15:22.408Z,13.60
2019-05-07T20:17:52.627Z,13.35
2019-05-07T20:20:22.176Z,12.70
2019-05-07T20:22:51.831Z,11.65
2019-05-07T20:25:22.434Z,12.58
2019-05-07T20:27:52.592Z,11.90
2019-05-07T20:30:22.750Z,11.38
2019-05-07T20:32:52.294Z,11.40
2019-05-07T20:35:20.981Z,11.12
2019-05-07T20:37:49.425Z,10.13
2019-05-07T20:40:17.867Z,11.03
2019-05-07T20:42:46.296Z,10.82
2019-05-07T20:45:14.820Z,10.40
2019-05-07T20:47:43.240Z,9.30
2019-05-07T20:50:12.736Z,10.48
2019-05-07T20:52:41.909Z,10.25
2019-05-07T20:55:30.632Z,10.80
2019-05-07T20:57:54.227Z,10.93
2019-05-07T21:00:24.334Z,10.05
2019-05-07T21:03:12.491Z,10.13
2019-05-07T21:05:42.185Z,10.03
2019-05-07T21:08:11.934Z,7.62
2019-05-07T21:10:42.543Z,9.70
2019-05-07T21:13:26.383Z,9.30
2019-05-07T21:15:41.870Z,10.45
2019-05-07T21:18:12.364Z,10.60
2019-05-07T21:20:42.047Z,11.00
2019-05-07T21:23:12.200Z,11.88
2019-05-07T21:25:43.458Z,11.68
2019-05-07T21:28:12.177Z,12.70
2019-05-07T21:30:42.691Z,13.00
2019-05-07T21:33:11.968Z,13.68
2019-05-07T21:35:42.739Z,13.90
2019-05-07T21:38:12.654Z,13.93
2019-05-07T21:40:42.931Z,15.18
2019-05-07T21:43:12.293Z,15.03
2019-05-07T21:45:42.290Z,13.68
2019-05-07T21:48:13.516Z,14.23
2019-05-07T21:50:41.078Z,14.83
2019-05-07T21:53:26.428Z,13.50
2019-05-07T21:56:12.626Z,14.23
2019-05-07T21:59:02.866Z,14.68
2019-05-07T22:01:38.621Z,15.80
2019-05-07T22:04:07.109Z,14.85
2019-05-07T22:06:35.542Z,15.05
2019-05-07T22:09:07.440Z,14.05
2019-05-07T22:11:36.007Z,13.55
2019-05-07T22:14:06.039Z,13.20
2019-05-07T22:16:34.476Z,15.38
2019-05-07T22:19:02.965Z,15.05
2019-05-07T22:21:33.889Z,15.20
2019-05-07T22:24:02.811Z,15.35
2019-05-07T22:26:32.194Z,14.97
2019-05-07T22:29:02.906Z,14.25
2019-05-07T22:31:32.614Z,14.58
2019-05-07T22:34:18.747Z,15.20
2019-05-07T22:36:47.168Z,15.25
2019-05-07T22:39:15.592Z,16.65
2019-05-07T22:41:44.018Z,15.88
2019-05-07T22:44:12.455Z,15.95
2019-05-07T22:46:42.171Z,15.90
2019-05-07T22:49:12.233Z,16.00
2019-05-07T22:51:40.803Z,16.02
2019-05-07T22:54:09.234Z,15.98
2019-05-07T22:56:57.330Z,14.87
2019-05-07T22:59:25.756Z,15.45
2019-05-07T23:01:54.950Z,15.25
2019-05-07T23:04:23.594Z,16.12
2019-05-07T23:06:52.747Z,15.20
2019-05-07T23:09:22.318Z,14.58
2019-05-07T23:11:52.657Z,16.48
2019-05-07T23:14:22.675Z,15.65
2019-05-07T23:16:55.003Z,15.43
2019-05-07T23:19:22.130Z,15.15
2019-05-07T23:21:52.157Z,15.35
2019-05-07T23:24:24.463Z,15.53
2019-05-07T23:26:53.302Z,15.60
2019-05-07T23:29:22.531Z,16.62
2019-05-07T23:31:52.839Z,15.73
2019-05-07T23:34:22.129Z,14.73
2019-05-07T23:36:53.067Z,16.30
2019-05-07T23:39:22.552Z,15.85
2019-05-07T23:41:58.304Z,15.53
2019-05-07T23:44:26.736Z,16.10
2019-05-07T23:46:55.170Z,15.45
2019-05-07T23:49:23.600Z,16.35
2019-05-07T23:51:53.017Z,16.42
2019-05-07T23:54:22.986Z,16.52
2019-05-07T23:57:04.927Z,15.53
2019-05-07T23:59:22.350Z,16.85
